Time;durP1;ratioP1;P1;durP2;ratioP2;P2;SDS_P1;SDS_P2;PMS_P1;PMS_P2;Temp;Humidity;BMP_temperature;BMP_pressure;BME280_temperature;BME280_humidity;BME280_pressure;Samples;Min_cycle;Max_cycle;Signal;HPM_P1;HPM_P2
2024/03/15 00:00:00;;;;;;;63.38;58.47;;;;;;;5.96;100.00;101321.59;5069827;28;20469;-70
2024/03/15 00:02:27;;;;;;;62.05;56.95;;;;;;;6.00;100.00;101324.78;5068544;28;20050;-70
2024/03/15 00:04:54;;;;;;;61.05;56.05;;;;;;;6.02;100.00;101320.13;5071007;28;20134;-69
2024/03/15 00:07:21;;;;;;;62.30;57.30;;;;;;;6.05;100.00;101323.31;5074619;28;20601;-71
2024/03/15 00:09:49;;;;;;;61.17;56.08;;;;;;;6.05;100.00;101320.66;5073908;28;20041;-70
2024/03/15 00:12:16;;;;;;;61.25;55.95;;;;;;;6.04;100.00;101321.63;5075601;28;20050;-69
2024/03/15 00:14:43;;;;;;;80.00;73.88;;;;;;;5.99;100.00;101312.56;5073915;28;20047;-71
2024/03/15 00:17:10;;;;;;;71.55;66.15;;;;;;;6.01;100.00;101310.59;5109220;28;20472;-70
2024/03/15 00:19:37;;;;;;;60.42;55.70;;;;;;;5.96;100.00;101311.06;5066715;28;20075;-70
2024/03/15 00:22:04;;;;;;;56.50;52.00;;;;;;;5.90;100.00;101301.13;5073572;28;20044;-70
2024/03/15 00:24:31;;;;;;;56.97;52.33;;;;;;;5.85;100.00;101301.63;5074779;28;20059;-70
2024/03/15 00:26:59;;;;;;;57.92;53.33;;;;;;;5.82;100.00;101298.47;5074143;28;20059;-70
2024/03/15 00:29:27;;;;;;;58.78;53.88;;;;;;;5.85;100.00;101304.25;5074553;28;20498;-69
2024/03/15 00:31:53;;;;;;;57.20;52.60;;;;;;;5.80;100.00;101303.91;5074783;28;20047;-69
2024/03/15 00:34:21;;;;;;;59.42;54.65;;;;;;;5.81;100.00;101308.22;5074541;28;20060;-69
2024/03/15 00:36:48;;;;;;;57.45;52.85;;;;;;;5.80;100.00;101301.25;5074603;28;20130;-70
2024/03/15 00:39:15;;;;;;;55.38;50.67;;;;;;;5.85;100.00;101300.81;5074712;28;20410;-69
2024/03/15 00:41:42;;;;;;;60.58;55.78;;;;;;;5.84;100.00;101301.75;5073680;28;20051;-70
2024/03/15 00:44:09;;;;;;;57.40;52.50;;;;;;;5.82;100.00;101303.75;5075447;28;20058;-70
2024/03/15 00:46:37;;;;;;;52.55;48.25;;;;;;;5.87;100.00;101299.66;5070160;28;20051;-70
2024/03/15 00:49:05;;;;;;;59.53;54.83;;;;;;;5.85;100.00;101303.44;5075315;28;20083;-69
2024/03/15 00:51:32;;;;;;;59.63;54.83;;;;;;;5.84;100.00;101301.75;5074989;28;20051;-69
2024/03/15 00:53:59;;;;;;;54.65;50.25;;;;;;;5.82;100.00;101296.66;5074395;28;20464;-70
2024/03/15 00:56:26;;;;;;;57.35;52.95;;;;;;;5.81;100.00;101302.94;5073882;28;20051;-71
2024/03/15 00:58:54;;;;;;;52.30;48.10;;;;;;;5.82;100.00;101301.13;5073467;28;20043;-71
2024/03/15 01:01:21;;;;;;;52.90;48.65;;;;;;;5.79;100.00;101299.63;5071820;28;20567;-71
2024/03/15 01:03:48;;;;;;;56.10;51.70;;;;;;;5.81;100.00;101300.31;5075261;28;20052;-70
2024/03/15 01:06:15;;;;;;;65.72;60.72;;;;;;;5.87;100.00;101297.03;5074163;28;20461;-72
2024/03/15 01:08:42;;;;;;;55.67;51.30;;;;;;;5.85;100.00;101295.53;5075268;28;20048;-70
2024/03/15 01:11:09;;;;;;;56.80;52.40;;;;;;;5.86;100.00;101295.34;5073850;28;20047;-70
2024/03/15 01:13:36;;;;;;;63.78;58.70;;;;;;;5.86;100.00;101302.44;5074351;28;20052;-72
2024/03/15 01:16:03;;;;;;;65.75;60.65;;;;;;;5.86;100.00;101297.16;5108454;28;20101;-72
2024/03/15 01:18:31;;;;;;;60.70;55.70;;;;;;;5.91;100.00;101294.88;5074302;28;20096;-71
2024/03/15 01:20:58;;;;;;;57.15;52.35;;;;;;;5.87;100.00;101294.38;5073482;28;20047;-71
2024/03/15 01:23:25;;;;;;;58.25;53.55;;;;;;;5.86;100.00;101284.81;5074618;28;20059;-71
2024/03/15 01:25:52;;;;;;;63.83;58.72;;;;;;;5.85;100.00;101284.97;5071841;28;20407;-71
2024/03/15 01:28:19;;;;;;;61.75;56.55;;;;;;;5.86;100.00;101290.06;5073380;28;20096;-70
2024/03/15 01:30:46;;;;;;;62.35;57.15;;;;;;;5.80;100.00;101276.72;5073007;28;20079;-70
2024/03/15 01:33:13;;;;;;;63.42;58.20;;;;;;;5.84;100.00;101285.94;5073673;28;20116;-70
2024/03/15 01:35:40;;;;;;;60.10;55.20;;;;;;;5.82;100.00;101283.47;5073949;28;20682;-71
2024/03/15 01:38:08;;;;;;;61.42;56.42;;;;;;;5.85;100.00;101283.16;5064167;28;20130;-70
2024/03/15 01:40:35;;;;;;;58.45;53.45;;;;;;;5.86;100.00;101284.81;5101731;28;20101;-71
2024/03/15 01:43:02;;;;;;;60.78;55.78;;;;;;;5.80;100.00;101285.44;5071037;28;20551;-70
2024/03/15 01:45:29;;;;;;;62.13;56.90;;;;;;;5.80;100.00;101285.44;5068859;28;20047;-70
2024/03/15 01:47:57;;;;;;;61.85;56.85;;;;;;;5.79;100.00;101285.63;5072784;28;20050;-70
2024/03/15 01:50:23;;;;;;;59.65;54.72;;;;;;;5.78;100.00;101279.53;5071790;28;20131;-70
2024/03/15 01:52:51;;;;;;;62.65;57.65;;;;;;;5.69;100.00;101283.13;5072805;28;20063;-71
2024/03/15 01:55:18;;;;;;;63.33;58.13;;;;;;;5.64;100.00;101280.97;5071919;28;20040;-71
2024/03/15 01:57:45;;;;;;;64.60;59.20;;;;;;;5.67;100.00;101285.09;5071116;28;20408;-71
2024/03/15 02:00:13;;;;;;;64.13;58.92;;;;;;;5.77;100.00;101291.03;5070493;28;20044;-71
2024/03/15 02:02:40;;;;;;;57.15;52.35;;;;;;;5.79;100.00;101278.53;5071388;28;20066;-70
2024/03/15 02:05:07;;;;;;;59.53;54.53;;;;;;;5.78;100.00;101281.31;5074147;28;20089;-72
2024/03/15 02:07:35;;;;;;;64.43;59.15;;;;;;;5.81;100.00;101281.00;5068615;28;20477;-71
2024/03/15 02:10:02;;;;;;;62.60;57.45;;;;;;;5.76;100.00;101288.59;5068896;28;20055;-71
2024/03/15 02:12:29;;;;;;;64.13;58.72;;;;;;;5.72;100.00;101283.63;5072577;28;20052;-70
2024/03/15 02:14:56;;;;;;;66.47;61.08;;;;;;;5.71;100.00;101286.41;5071184;28;20100;-72
2024/03/15 02:17:23;;;;;;;73.25;67.55;;;;;;;5.73;100.00;101284.44;5073808;28;20052;-72
2024/03/15 02:19:50;;;;;;;64.70;59.45;;;;;;;5.74;100.00;101286.91;5073568;28;20048;-72
2024/03/15 02:22:17;;;;;;;59.30;54.35;;;;;;;5.64;100.00;101283.59;5073313;28;20424;-72
2024/03/15 02:24:44;;;;;;;69.50;63.90;;;;;;;5.68;100.00;101286.72;5073132;28;20471;-72
2024/03/15 02:27:14;;;;;;;76.82;70.85;;;;;;;5.59;100.00;101283.25;5070367;28;20488;-70
2024/03/15 02:29:41;;;;;;;65.22;59.92;;;;;;;5.57;100.00;101279.09;5073249;28;20508;-72
2024/03/15 02:32:08;;;;;;;55.25;50.55;;;;;;;5.62;100.00;101287.38;5070576;28;20051;-71
2024/03/15 02:34:35;;;;;;;56.92;52.20;;;;;;;5.54;100.00;101279.44;5071313;28;20047;-71
2024/03/15 02:37:02;;;;;;;67.43;61.72;;;;;;;5.59;100.00;101282.41;5070261;28;20062;-71
2024/03/15 02:39:29;;;;;;;58.90;54.10;;;;;;;5.54;100.00;101285.53;5071584;28;20051;-71
2024/03/15 02:41:56;;;;;;;62.88;57.95;;;;;;;5.57;100.00;101284.38;5071375;28;20069;-72
2024/03/15 02:44:23;;;;;;;59.55;54.40;;;;;;;5.57;100.00;101287.88;5070425;28;20055;-71
2024/03/15 02:46:50;;;;;;;61.40;56.30;;;;;;;5.59;100.00;101280.59;5095922;28;20118;-71
2024/03/15 02:49:17;;;;;;;66.72;61.38;;;;;;;5.56;100.00;101275.66;5069496;28;20051;-70
2024/03/15 02:51:44;;;;;;;66.20;60.80;;;;;;;5.51;100.00;101278.78;5070685;28;20109;-71
2024/03/15 02:54:11;;;;;;;60.90;55.92;;;;;;;5.45;100.00;101279.41;5072990;28;20056;-72
2024/03/15 02:56:38;;;;;;;55.15;50.72;;;;;;;5.50;100.00;101282.38;5070391;28;20055;-72
2024/03/15 02:59:07;;;;;;;61.10;55.85;;;;;;;5.48;100.00;101278.28;5072645;28;20484;-72
2024/03/15 03:01:35;;;;;;;70.05;64.47;;;;;;;5.43;100.00;101277.91;5071877;28;20554;-72
2024/03/15 03:04:05;;;;;;;68.40;62.80;;;;;;;5.50;100.00;101284.19;5072917;28;20058;-72
2024/03/15 03:06:35;;;;;;;74.25;68.35;;;;;;;5.41;100.00;101283.31;5072244;28;20417;-72
2024/03/15 03:09:03;;;;;;;77.82;71.53;;;;;;;5.44;100.00;101284.81;5068952;28;20052;-72
2024/03/15 03:11:30;;;;;;;67.20;61.60;;;;;;;5.38;100.00;101293.38;5070893;28;20052;-71
2024/03/15 03:13:58;;;;;;;72.15;66.25;;;;;;;5.40;100.00;101294.88;5069912;28;20051;-71
2024/03/15 03:16:25;;;;;;;72.72;66.72;;;;;;;5.40;100.00;101292.22;5106054;28;20118;-71
2024/03/15 03:18:53;;;;;;;67.07;61.47;;;;;;;5.40;100.00;101294.03;5072308;28;20646;-71
2024/03/15 03:21:21;;;;;;;71.60;65.75;;;;;;;5.44;100.00;101300.63;5070723;28;20054;-73
2024/03/15 03:23:48;;;;;;;72.80;67.00;;;;;;;5.43;100.00;101293.72;5072103;28;20492;-71
2024/03/15 03:26:15;;;;;;;64.40;59.30;;;;;;;5.39;100.00;101295.84;5105567;28;20063;-71
2024/03/15 03:28:42;;;;;;;61.20;56.40;;;;;;;5.45;100.00;101289.94;5070619;28;20055;-72
2024/03/15 03:31:09;;;;;;;61.17;56.17;;;;;;;5.38;100.00;101291.56;5071081;28;20055;-72
2024/03/15 03:33:36;;;;;;;60.30;55.10;;;;;;;5.43;100.00;101301.63;5070790;28;20054;-73
2024/03/15 03:36:03;;;;;;;63.90;58.70;;;;;;;5.46;100.00;101290.78;5071853;28;20139;-72
2024/03/15 03:38:30;;;;;;;60.47;55.58;;;;;;;5.49;100.00;101299.19;5070034;28;20862;-72
2024/03/15 03:40:57;;;;;;;64.60;59.50;;;;;;;5.50;100.00;101292.91;5073493;28;20489;-71
2024/03/15 03:43:24;;;;;;;62.17;56.97;;;;;;;5.49;100.00;101291.28;5072970;28;20484;-72
2024/03/15 03:45:54;;;;;;;67.55;61.95;;;;;;;5.36;100.00;101288.28;5070278;28;20050;-73
2024/03/15 03:48:21;;;;;;;59.38;54.13;;;;;;;5.42;100.00;101289.44;5069018;28;20759;-71
2024/03/15 03:50:48;;;;;;;61.17;56.05;;;;;;;5.38;100.00;101293.38;5075754;28;20052;-71
2024/03/15 03:53:15;;;;;;;58.83;53.95;;;;;;;5.33;100.00;101287.75;5067066;28;20918;-70
2024/03/15 03:55:42;;;;;;;63.15;57.85;;;;;;;5.39;100.00;101293.22;5074272;28;20438;-71
2024/03/15 03:58:09;;;;;;;66.60;61.15;;;;;;;5.40;100.00;101284.31;5076017;28;20059;-71
2024/03/15 04:00:37;;;;;;;68.00;62.53;;;;;;;5.42;100.00;101292.91;5075738;28;20044;-70
2024/03/15 04:03:05;;;;;;;72.72;66.82;;;;;;;5.39;100.00;101289.75;5073170;28;20130;-69
2024/03/15 04:05:32;;;;;;;55.58;50.75;;;;;;;5.42;100.00;101290.28;5075230;28;20055;-69
2024/03/15 04:07:59;;;;;;;65.30;59.65;;;;;;;5.46;100.00;101293.41;5068218;28;20056;-69
2024/03/15 04:10:26;;;;;;;56.78;52.00;;;;;;;5.45;100.00;101295.22;5073986;28;20450;-69
2024/03/15 04:12:55;;;;;;;58.45;53.55;;;;;;;5.51;100.00;101299.84;5072258;28;20480;-70
2024/03/15 04:15:21;;;;;;;51.35;47.05;;;;;;;5.53;100.00;101299.69;5071752;28;20083;-72
2024/03/15 04:17:49;;;;;;;52.60;48.22;;;;;;;5.53;100.00;101298.88;5075491;28;20047;-71
2024/03/15 04:20:17;;;;;;;53.75;49.25;;;;;;;5.57;100.00;101295.78;5091768;28;20587;-71
2024/03/15 04:22:45;;;;;;;56.30;51.70;;;;;;;5.49;100.00;101299.19;5074012;28;20594;-70
2024/03/15 04:25:16;;;;;;;48.55;44.55;;;;;;;5.56;100.00;101298.53;5070920;28;20068;-71
2024/03/15 04:27:44;;;;;;;51.85;47.55;;;;;;;5.48;100.00;101294.91;5072520;28;20131;-71
2024/03/15 04:30:14;;;;;;;52.60;48.50;;;;;;;5.42;100.00;101297.34;5074344;28;20047;-71
2024/03/15 04:32:41;;;;;;;50.45;46.40;;;;;;;5.42;100.00;101298.16;5074160;28;20080;-72
2024/03/15 04:35:08;;;;;;;53.08;48.97;;;;;;;5.43;100.00;101302.44;5073475;28;20109;-71
2024/03/15 04:37:35;;;;;;;54.58;50.35;;;;;;;5.42;100.00;101298.16;5074608;28;20134;-71
2024/03/15 04:40:04;;;;;;;52.05;47.95;;;;;;;5.48;100.00;101302.00;5074841;28;21975;-71
2024/03/15 04:42:32;;;;;;;56.90;52.70;;;;;;;5.42;100.00;101302.63;5075098;28;20556;-72
2024/03/15 04:45:04;;;;;;;54.60;50.05;;;;;;;5.46;100.00;101303.94;5105148;28;20084;-71
2024/03/15 04:47:31;;;;;;;51.95;47.85;;;;;;;5.50;100.00;101297.38;5069437;28;20055;-71
2024/03/15 04:49:58;;;;;;;56.65;52.40;;;;;;;5.46;100.00;101296.88;5067317;28;20101;-70
2024/03/15 04:52:25;;;;;;;60.75;56.20;;;;;;;5.48;100.00;101302.00;5071431;28;20105;-72
2024/03/15 04:54:52;;;;;;;52.88;48.78;;;;;;;5.47;100.00;101303.78;5074081;28;20050;-70
2024/03/15 04:57:22;;;;;;;48.88;44.88;;;;;;;5.38;100.00;101302.09;5072325;28;20047;-70
2024/03/15 04:59:51;;;;;;;47.53;43.83;;;;;;;5.49;100.00;101299.19;5071866;28;20052;-70
2024/03/15 05:02:19;;;;;;;50.50;46.60;;;;;;;5.48;100.00;101307.25;5072850;28;20054;-70
2024/03/15 05:04:46;;;;;;;56.55;52.25;;;;;;;5.47;100.00;101303.78;5073454;28;20048;-69
2024/03/15 05:07:15;;;;;;;52.70;48.15;;;;;;;5.47;100.00;101309.03;5072922;28;20043;-69
2024/03/15 05:09:42;;;;;;;52.13;48.03;;;;;;;5.48;100.00;101308.09;5102082;28;20404;-69
2024/03/15 05:12:09;;;;;;;54.88;50.70;;;;;;;5.45;100.00;101305.75;5069488;28;20044;-70
2024/03/15 05:14:36;;;;;;;58.78;54.03;;;;;;;5.55;100.00;101305.63;5069950;28;20047;-70
2024/03/15 05:17:03;;;;;;;50.30;46.30;;;;;;;5.51;100.00;101307.75;5068304;28;20055;-69
2024/03/15 05:19:30;;;;;;;48.28;44.47;;;;;;;5.54;100.00;101304.00;5071670;28;20111;-70
2024/03/15 05:21:58;;;;;;;51.63;47.53;;;;;;;5.54;100.00;101311.91;5070672;28;20055;-70
2024/03/15 05:24:25;;;;;;;51.25;47.22;;;;;;;5.59;100.00;101319.31;5073169;28;20048;-70
2024/03/15 05:26:52;;;;;;;52.15;48.00;;;;;;;5.53;100.00;101315.50;5072705;28;20044;-70
2024/03/15 05:29:19;;;;;;;54.40;50.20;;;;;;;5.55;100.00;101316.16;5064928;28;20082;-70
2024/03/15 05:31:46;;;;;;;54.10;49.80;;;;;;;5.62;100.00;101327.72;5071184;28;20051;-70
2024/03/15 05:34:14;;;;;;;54.08;49.78;;;;;;;5.62;100.00;101322.44;5105151;28;20551;-70
2024/03/15 05:36:41;;;;;;;56.65;52.13;;;;;;;5.71;100.00;101326.78;5073762;28;20728;-71
2024/03/15 05:39:10;;;;;;;61.25;56.55;;;;;;;5.65;100.00;101324.78;5073078;28;20051;-70
2024/03/15 05:41:38;;;;;;;55.65;51.25;;;;;;;5.78;100.00;101323.50;5067613;28;20530;-69
2024/03/15 05:44:06;;;;;;;54.25;49.67;;;;;;;5.72;100.00;101324.97;5072037;28;20055;-70
2024/03/15 05:46:33;;;;;;;59.22;54.63;;;;;;;5.76;100.00;101318.41;5065996;28;20990;-70
2024/03/15 05:49:00;;;;;;;57.83;53.28;;;;;;;5.74;100.00;101330.91;5071490;28;20083;-70
2024/03/15 05:51:27;;;;;;;53.35;48.85;;;;;;;5.95;100.00;101330.50;5068272;28;20062;-72
2024/03/15 05:53:55;;;;;;;54.97;50.53;;;;;;;5.93;100.00;101324.56;5073538;28;20138;-71
2024/03/15 05:56:24;;;;;;;52.88;48.85;;;;;;;5.92;100.00;101322.88;5074244;28;20905;-71
2024/03/15 05:58:51;;;;;;;53.90;49.75;;;;;;;5.90;100.00;101319.56;5071152;28;20442;-70
2024/03/15 06:01:18;;;;;;;52.47;48.17;;;;;;;5.89;100.00;101321.41;5071580;28;20618;-71
2024/03/15 06:03:45;;;;;;;55.65;51.25;;;;;;;5.95;100.00;101322.59;5071631;28;20108;-70
2024/03/15 06:06:15;;;;;;;57.33;52.88;;;;;;;6.04;100.00;101324.28;5072740;28;20104;-70
2024/03/15 06:08:43;;;;;;;58.97;54.67;;;;;;;6.16;100.00;101333.53;5070268;28;20048;-71
2024/03/15 06:11:11;;;;;;;55.38;51.17;;;;;;;6.07;100.00;101331.84;5073449;28;20052;-70
2024/03/15 06:13:40;;;;;;;53.83;49.72;;;;;;;6.17;100.00;101336.97;5074124;28;20112;-73
2024/03/15 06:16:10;;;;;;;53.97;49.88;;;;;;;6.36;100.00;101339.34;5073465;28;20477;-71
2024/03/15 06:18:37;;;;;;;55.97;51.50;;;;;;;6.31;100.00;101339.00;5072694;28;20044;-70
2024/03/15 06:21:04;;;;;;;50.92;46.83;;;;;;;6.24;100.00;101338.00;5072750;28;20059;-70
2024/03/15 06:23:31;;;;;;;53.40;49.30;;;;;;;6.23;100.00;101341.63;5067910;28;20051;-71
2024/03/15 06:26:02;;;;;;;51.10;47.03;;;;;;;6.37;100.00;101356.81;5070057;28;20047;-70
2024/03/15 06:28:29;;;;;;;56.15;51.55;;;;;;;6.47;100.00;101354.00;5069291;28;20130;-69
2024/03/15 06:30:56;;;;;;;55.25;50.85;;;;;;;6.14;100.00;101346.06;5072454;28;20493;-70
2024/03/15 06:33:28;;;;;;;52.53;48.10;;;;;;;6.24;100.00;101345.09;5071301;28;20104;-71
2024/03/15 06:36:00;;;;;;;54.28;49.97;;;;;;;6.44;100.00;101346.44;5064924;28;20056;-70
2024/03/15 06:38:40;;;;;;;53.10;49.15;;;;;;;6.32;100.00;101342.47;5072163;28;20048;-70
2024/03/15 06:41:14;;;;;;;54.35;50.15;;;;;;;6.45;100.00;101355.19;5073066;28;20415;-69
2024/03/15 06:43:42;;;;;;;49.55;45.75;;;;;;;6.47;100.00;101351.38;5072648;28;20051;-70
2024/03/15 06:46:19;;;;;;;52.72;48.85;;;;;;;6.53;100.00;101352.53;5072862;28;20052;-70
2024/03/15 06:48:55;;;;;;;52.42;48.63;;;;;;;6.69;100.00;101357.84;5067674;28;20451;-70
2024/03/15 06:54:08;;;;;;;48.47;44.97;;;;;;;6.69;100.00;101352.56;5077655;28;20061;-70
2024/03/15 06:56:36;;;;;;;48.25;44.65;;;;;;;6.83;100.00;101348.44;5072318;28;20447;-70
2024/03/15 06:59:03;;;;;;;48.90;45.40;;;;;;;6.84;100.00;101350.91;5068570;28;20066;-69
2024/03/15 07:01:31;;;;;;;44.67;41.38;;;;;;;6.74;100.00;101352.06;5071548;28;20130;-69
2024/03/15 07:03:58;;;;;;;49.92;46.03;;;;;;;7.04;100.00;101350.56;5106168;28;20761;-70
2024/03/15 07:06:27;;;;;;;49.03;45.40;;;;;;;6.92;100.00;101350.06;5071268;28;20051;-69
2024/03/15 07:08:57;;;;;;;46.75;43.15;;;;;;;6.93;100.00;101346.47;5070757;28;20050;-69
2024/03/15 07:11:28;;;;;;;49.95;46.05;;;;;;;7.18;100.00;101362.28;5072993;28;20039;-69
2024/03/15 07:13:56;;;;;;;50.45;45.88;;;;;;;7.34;100.00;101357.75;5070179;28;20058;-70
2024/03/15 07:16:24;;;;;;;47.03;43.42;;;;;;;7.36;100.00;101357.59;5070005;28;20135;-70
2024/03/15 07:18:52;;;;;;;47.35;43.92;;;;;;;7.21;100.00;101356.66;5068890;28;20054;-70
2024/03/15 07:21:21;;;;;;;47.95;44.65;;;;;;;7.17;100.00;101357.97;5065214;28;20066;-70
2024/03/15 07:23:48;;;;;;;48.22;44.83;;;;;;;7.47;100.00;101359.06;5072534;28;20047;-70
2024/03/15 07:26:15;;;;;;;50.20;46.75;;;;;;;7.47;100.00;101353.75;5071315;28;20501;-69
2024/03/15 07:28:44;;;;;;;50.63;47.13;;;;;;;7.47;100.00;101359.88;5073705;28;20062;-69
2024/03/15 07:31:11;;;;;;;50.40;47.10;;;;;;;7.19;100.00;101356.00;5072377;28;20132;-70
2024/03/15 07:33:38;;;;;;;51.10;47.80;;;;;;;7.31;100.00;101359.91;5071772;28;20096;-69
2024/03/15 07:36:06;;;;;;;50.20;46.80;;;;;;;7.46;100.00;101366.16;5066070;28;20572;-69
2024/03/15 07:38:33;;;;;;;52.33;48.92;;;;;;;7.42;100.00;101356.13;5071334;28;20078;-70
2024/03/15 07:41:00;;;;;;;48.65;45.38;;;;;;;7.51;100.00;101365.66;5070466;28;20067;-69
2024/03/15 07:43:27;;;;;;;47.33;43.88;;;;;;;7.47;100.00;101359.88;5072899;28;20097;-71
2024/03/15 07:45:54;;;;;;;48.63;45.25;;;;;;;7.60;100.00;101359.34;5072117;28;20079;-72
2024/03/15 07:48:21;;;;;;;48.13;44.83;;;;;;;7.64;100.00;101362.47;5062965;28;20075;-71
2024/03/15 07:50:49;;;;;;;44.88;41.75;;;;;;;7.58;100.00;101361.34;5070600;28;20052;-70
2024/03/15 07:53:16;;;;;;;47.47;44.08;;;;;;;7.55;100.00;101365.13;5072346;28;20047;-70
2024/03/15 07:55:43;;;;;;;47.72;44.53;;;;;;;7.43;100.00;101363.84;5071661;28;20113;-71
2024/03/15 07:58:10;;;;;;;45.72;42.63;;;;;;;7.41;100.00;101357.91;5071975;28;20051;-71
2024/03/15 08:00:38;;;;;;;50.47;46.83;;;;;;;7.86;100.00;101356.44;5073000;28;20066;-71
2024/03/15 08:03:07;;;;;;;58.03;53.97;;;;;;;7.69;100.00;101360.16;5067540;28;20437;-70
2024/03/15 08:05:34;;;;;;;59.80;55.50;;;;;;;7.89;100.00;101361.38;5071031;28;20047;-71
2024/03/15 08:08:01;;;;;;;56.55;52.38;;;;;;;7.72;100.00;101365.91;5104904;28;20055;-71
2024/03/15 08:10:28;;;;;;;55.15;51.10;;;;;;;7.43;100.00;101361.22;5070634;28;20044;-70
2024/03/15 08:12:55;;;;;;;49.67;46.03;;;;;;;7.72;100.00;101363.28;5067852;28;20052;-71
2024/03/15 08:15:23;;;;;;;60.28;55.75;;;;;;;7.82;100.00;101359.59;5069420;28;20123;-70
2024/03/15 08:17:50;;;;;;;59.25;55.15;;;;;;;7.78;100.00;101364.41;5067985;28;20063;-70
2024/03/15 08:20:17;;;;;;;52.45;48.75;;;;;;;7.56;100.00;101360.66;5069886;28;20055;-71
2024/03/15 08:22:44;;;;;;;51.67;47.78;;;;;;;7.58;100.00;101361.34;5067547;28;20048;-71
2024/03/15 08:25:11;;;;;;;53.53;49.72;;;;;;;7.70;100.00;101359.97;5070433;28;20066;-70
2024/03/15 08:27:41;;;;;;;55.58;51.58;;;;;;;7.81;100.00;101356.13;5101288;28;20771;-70
2024/03/15 08:30:08;;;;;;;61.42;57.17;;;;;;;8.45;100.00;101356.78;5074285;28;20051;-70
2024/03/15 08:32:36;;;;;;;57.05;53.10;;;;;;;7.94;100.00;101359.03;5072166;28;20040;-71
2024/03/15 08:35:03;;;;;;;64.75;60.15;;;;;;;8.20;100.00;101360.53;5073652;28;20055;-70
2024/03/15 08:37:31;;;;;;;60.63;56.42;;;;;;;8.10;100.00;101362.59;5071824;28;20723;-70
2024/03/15 08:39:58;;;;;;;56.55;52.47;;;;;;;7.97;100.00;101363.16;5074518;28;20054;-71
2024/03/15 08:42:26;;;;;;;55.95;51.47;;;;;;;8.03;100.00;101360.66;5073883;28;20040;-71
2024/03/15 08:44:54;;;;;;;57.22;53.13;;;;;;;8.05;100.00;101360.50;5074807;28;20051;-70
2024/03/15 08:47:22;;;;;;;65.28;60.58;;;;;;;8.52;100.00;101354.25;5068877;28;20859;-70
2024/03/15 08:49:51;;;;;;;59.28;54.97;;;;;;;8.21;100.00;101356.91;5069853;28;20142;-70
2024/03/15 08:52:18;;;;;;;58.80;54.45;;;;;;;8.43;100.00;101356.13;5075314;28;20054;-70
2024/03/15 08:54:45;;;;;;;64.78;60.05;;;;;;;8.21;100.00;101352.44;5074859;28;20047;-69
2024/03/15 08:57:12;;;;;;;66.47;61.92;;;;;;;8.29;100.00;101356.88;5069997;28;20072;-69
2024/03/15 08:59:40;;;;;;;63.10;58.70;;;;;;;8.37;100.00;101353.34;5074139;28;20101;-70
2024/03/15 09:02:07;;;;;;;60.35;55.45;;;;;;;8.20;100.00;101358.75;5073279;28;20056;-69
2024/03/15 09:04:35;;;;;;;63.80;59.42;;;;;;;8.71;100.00;101353.78;5074253;28;20083;-70
2024/03/15 09:07:03;;;;;;;61.25;56.85;;;;;;;8.08;100.00;101360.16;5070214;28;20563;-69
2024/03/15 09:09:33;;;;;;;51.55;47.85;;;;;;;7.92;100.00;101350.44;5073776;28;20109;-69
2024/03/15 09:12:00;;;;;;;58.13;53.47;;;;;;;8.06;100.00;101348.09;5074365;28;20096;-70
2024/03/15 09:14:29;;;;;;;67.72;62.63;;;;;;;8.29;100.00;101348.09;5073193;28;20112;-69
2024/03/15 09:16:56;;;;;;;66.13;61.42;;;;;;;8.03;100.00;101350.06;5070304;28;20058;-70
2024/03/15 09:19:23;;;;;;;60.58;55.97;;;;;;;8.28;100.00;101349.91;5072243;28;20505;-69
2024/03/15 09:21:50;;;;;;;73.72;68.22;;;;;;;9.42;100.00;101360.59;5073157;28;20059;-69
2024/03/15 09:24:18;;;;;;;65.38;60.45;;;;;;;8.40;100.00;101348.53;5072952;28;20081;-69
2024/03/15 09:26:45;;;;;;;64.63;59.20;;;;;;;8.36;100.00;101352.53;5072833;28;20048;-69
2024/03/15 09:29:12;;;;;;;65.53;59.33;;;;;;;9.05;100.00;101355.16;5070649;28;20052;-71
2024/03/15 09:31:40;;;;;;;58.53;54.22;;;;;;;8.40;100.00;101351.19;5073985;28;20047;-70
2024/03/15 09:34:10;;;;;;;64.45;59.78;;;;;;;8.47;100.00;101356.59;5073728;28;20055;-71
2024/03/15 09:36:38;;;;;;;73.47;68.28;;;;;;;8.65;100.00;101343.91;5075364;28;20047;-71
2024/03/15 09:39:05;;;;;;;73.93;68.65;;;;;;;9.03;100.00;101354.50;5072037;28;20116;-70
2024/03/15 09:41:33;;;;;;;69.65;64.78;;;;;;;8.45;100.00;101353.31;5071094;28;20051;-70
2024/03/15 09:44:00;;;;;;;59.90;55.60;;;;;;;8.38;100.00;101354.97;5104287;28;20138;-70
2024/03/15 09:46:28;;;;;;;69.53;64.32;;;;;;;8.18;100.00;101351.97;5073863;28;20047;-71
2024/03/15 09:48:56;;;;;;;76.60;71.20;;;;;;;8.37;100.00;101348.88;5069808;28;20096;-70
2024/03/15 09:51:23;;;;;;;76.75;70.60;;;;;;;8.33;100.00;101342.28;5071784;28;20055;-70
2024/03/15 09:53:51;;;;;;;78.82;73.25;;;;;;;8.97;100.00;101357.06;5074928;28;20507;-71
2024/03/15 09:56:18;;;;;;;66.75;61.85;;;;;;;8.58;100.00;101342.97;5064849;28;20876;-70
2024/03/15 09:58:46;;;;;;;69.50;64.07;;;;;;;8.56;100.00;101346.78;5074442;28;20075;-72
2024/03/15 10:01:14;;;;;;;70.82;65.63;;;;;;;8.65;100.00;101351.84;5070088;28;20104;-71
2024/03/15 10:03:42;;;;;;;75.10;70.00;;;;;;;8.78;100.00;101343.31;5073690;28;20043;-71
2024/03/15 10:06:11;;;;;;;72.13;66.35;;;;;;;8.71;100.00;101342.34;5072842;28;20079;-70
2024/03/15 10:08:38;;;;;;;79.65;73.97;;;;;;;8.76;100.00;101340.00;5072738;28;20051;-69
2024/03/15 10:11:05;;;;;;;80.03;74.30;;;;;;;8.87;100.00;101341.41;5073433;28;20059;-70
2024/03/15 10:13:33;;;;;;;87.93;82.03;;;;;;;8.80;100.00;101343.13;5073867;28;20044;-70
2024/03/15 10:16:01;;;;;;;80.90;75.30;;;;;;;9.07;100.00;101349.66;5106941;28;20047;-70
2024/03/15 10:18:28;;;;;;;75.22;70.13;;;;;;;9.28;100.00;101346.31;5073537;28;20055;-71
2024/03/15 10:20:55;;;;;;;71.03;66.10;;;;;;;8.69;100.00;101347.84;5072626;28;20048;-71
2024/03/15 10:23:22;;;;;;;70.45;65.55;;;;;;;9.15;100.00;101349.59;5098187;28;20039;-70
2024/03/15 10:25:50;;;;;;;76.20;70.75;;;;;;;9.25;100.00;101336.06;5072551;28;20047;-69
2024/03/15 10:28:19;;;;;;;84.25;78.05;;;;;;;9.37;100.00;101346.03;5066799;28;20420;-70
2024/03/15 10:30:47;;;;;;;77.57;72.00;;;;;;;9.14;100.00;101332.88;5073197;28;20129;-69
2024/03/15 10:33:14;;;;;;;78.47;73.28;;;;;;;9.85;100.00;101333.19;5065957;28;20191;-70
2024/03/15 10:35:41;;;;;;;69.15;64.55;;;;;;;9.44;100.00;101334.69;5069177;28;20053;-69
2024/03/15 10:38:09;;;;;;;63.92;59.63;;;;;;;9.06;100.00;101332.94;5068987;28;20078;-69
2024/03/15 10:40:36;;;;;;;69.50;64.60;;;;;;;9.45;100.00;101334.53;5070423;28;20043;-70
2024/03/15 10:43:08;;;;;;;71.40;66.20;;;;;;;9.10;100.00;101333.38;5067477;28;21457;-68
2024/03/15 10:45:35;;;;;;;80.68;74.88;;;;;;;9.45;100.00;101336.34;5068234;28;20052;-69
2024/03/15 10:48:02;;;;;;;90.72;84.63;;;;;;;9.35;100.00;101328.69;5064306;28;20108;-69
2024/03/15 10:50:29;;;;;;;82.57;77.00;;;;;;;10.11;100.00;101323.91;5075417;28;20104;-70
2024/03/15 10:52:56;;;;;;;70.45;65.63;;;;;;;9.99;100.00;101328.06;5068002;28;20043;-69
2024/03/15 10:55:24;;;;;;;73.60;68.22;;;;;;;9.76;100.00;101322.88;5068119;28;20051;-69
2024/03/15 10:57:51;;;;;;;83.68;78.05;;;;;;;10.13;100.00;101321.84;5070112;28;20138;-70
2024/03/15 11:00:18;;;;;;;83.82;78.13;;;;;;;10.23;100.00;101322.38;5070272;28;20055;-69
2024/03/15 11:02:45;;;;;;;74.53;69.35;;;;;;;10.65;100.00;101320.78;5070258;28;20047;-71
2024/03/15 11:05:17;;;;;;;72.43;67.07;;;;;;;11.02;100.00;101308.16;5068440;28;20060;-71
2024/03/15 11:07:45;;;;;;;70.95;65.97;;;;;;;10.50;100.00;101318.19;5069320;28;20079;-70
2024/03/15 11:10:14;;;;;;;59.17;55.13;;;;;;;10.51;100.00;101313.69;5066229;28;20047;-71
2024/03/15 11:12:41;;;;;;;73.40;68.38;;;;;;;11.24;100.00;101315.03;5067110;28;20412;-72